Time;durP1;ratioP1;P1;durP2;ratioP2;P2;SDS_P1;SDS_P2;PMS_P1;PMS_P2;Temp;Humidity;BMP_temperature;BMP_pressure;BME280_temperature;BME280_humidity;BME280_pressure;Samples;Min_cycle;Max_cycle;Signal;HPM_P1;HPM_P2
2020/12/05 00:11:11;;;;;;;43.58;19.62;;;;;;;3.97;100.00;99406.81;10563898;83;21061;-80
2020/12/05 00:26:23;;;;;;;51.43;22.17;;;;;;;4.08;100.00;99435.85;10089540;86;21258;-80
2020/12/05 00:41:31;;;;;;;46.70;21.73;;;;;;;4.19;100.00;99442.38;10313099;83;21619;-81
2020/12/05 00:57:02;;;;;;;43.95;20.80;;;;;;;4.12;100.00;99447.20;10732915;82;21146;-84
2020/12/05 01:12:18;;;;;;;55.67;21.95;;;;;;;4.15;100.00;99456.05;10762970;82;21807;-81
2020/12/05 01:27:36;;;;;;;49.65;23.12;;;;;;;4.38;100.00;99441.84;10752526;82;21068;-81
2020/12/05 01:42:48;;;;;;;55.90;25.15;;;;;;;4.31;100.00;99445.34;10731938;82;21064;-83
2020/12/05 01:58:14;;;;;;;43.60;21.93;;;;;;;4.28;100.00;99424.00;10670323;82;21099;-81
2020/12/05 02:13:46;;;;;;;76.28;31.27;;;;;;;4.37;100.00;99440.63;10614133;82;21479;-80
2020/12/05 02:29:07;;;;;;;79.95;31.80;;;;;;;4.38;100.00;99449.63;10503640;84;21062;-80
2020/12/05 02:44:21;;;;;;;117.57;49.00;;;;;;;4.49;100.00;99448.33;10511663;84;21041;-82
2020/12/05 02:59:31;;;;;;;85.07;33.80;;;;;;;4.54;100.00;99453.64;10312020;85;21100;-81
2020/12/05 03:14:39;;;;;;;66.50;26.77;;;;;;;4.41;100.00;99437.70;10662824;82;21025;-77
2020/12/05 03:29:51;;;;;;;68.92;29.92;;;;;;;4.43;100.00;99468.27;10660491;82;21053;-78
2020/12/05 03:45:05;;;;;;;47.17;23.62;;;;;;;4.50;100.00;99463.45;10369283;85;21553;-78
2020/12/05 04:00:28;;;;;;;78.28;32.58;;;;;;;4.78;100.00;99470.45;10749910;82;21227;-77
2020/12/05 04:15:41;;;;;;;52.43;23.30;;;;;;;4.62;100.00;99474.69;10806949;82;21191;-78
2020/12/05 04:30:58;;;;;;;73.50;28.90;;;;;;;4.58;100.00;99487.08;10752114;82;21028;-78
2020/12/05 04:46:29;;;;;;;63.63;25.80;;;;;;;4.49;100.00;99491.67;10581569;82;21462;-80
2020/12/05 05:01:47;;;;;;;53.45;22.85;;;;;;;4.56;100.00;99481.16;10328596;85;21630;-80
2020/12/05 05:17:06;;;;;;;70.25;27.73;;;;;;;4.75;100.00;99487.55;10316412;84;21133;-80
2020/12/05 05:32:29;;;;;;;39.80;19.70;;;;;;;4.85;100.00;99463.00;10728349;82;21102;-78
2020/12/05 05:47:38;;;;;;;42.62;20.68;;;;;;;4.95;100.00;99473.86;10711170;82;21092;-81
2020/12/05 06:02:51;;;;;;;34.07;18.17;;;;;;;4.90;100.00;99482.97;10692973;82;21071;-78
2020/12/05 06:18:01;;;;;;;44.55;21.37;;;;;;;5.00;100.00;99515.08;10343050;84;21839;-77
2020/12/05 06:33:34;;;;;;;57.58;25.30;;;;;;;5.00;100.00;99526.33;10441246;85;21041;-79
2020/12/05 06:48:46;;;;;;;53.40;25.37;;;;;;;4.95;100.00;99539.33;10608955;82;21588;-77
2020/12/05 07:03:53;;;;;;;42.83;22.17;;;;;;;5.08;100.00;99562.59;10657952;82;21123;-79
2020/12/05 07:19:02;;;;;;;47.10;24.00;;;;;;;5.07;100.00;99560.93;10710788;82;21051;-79
2020/12/05 07:34:14;;;;;;;39.75;20.23;;;;;;;5.37;100.00;99585.08;10700776;82;21033;-81
2020/12/05 07:49:22;;;;;;;29.20;16.00;;;;;;;5.46;100.00;99594.77;10729565;82;21060;-79
2020/12/05 08:05:03;;;;;;;29.42;15.68;;;;;;;5.62;100.00;99605.26;10748729;81;21551;-79
2020/12/05 08:20:13;;;;;;;33.25;18.27;;;;;;;5.84;100.00;99631.73;10559472;82;21016;-81
2020/12/05 08:35:22;;;;;;;99.30;34.43;;;;;;;6.00;100.00;99635.29;10632937;83;21080;-80
2020/12/05 08:50:34;;;;;;;165.73;64.67;;;;;;;6.35;100.00;99638.16;10756110;80;21076;-81
2020/12/05 09:05:46;;;;;;;60.20;29.63;;;;;;;6.99;100.00;99654.69;10726992;81;21069;-81
2020/12/05 09:20:52;;;;;;;712.48;272.35;;;;;;;7.62;100.00;99668.14;10780769;81;21080;-80
2020/12/05 09:35:56;;;;;;;160.78;60.60;;;;;;;8.24;100.00;99664.13;10736577;81;21106;-81
2020/12/05 09:51:02;;;;;;;95.30;40.17;;;;;;;8.51;100.00;99667.39;10762834;82;21030;-82
2020/12/05 10:06:11;;;;;;;49.55;24.32;;;;;;;8.73;100.00;99680.69;10679298;82;21057;-81
2020/12/05 10:21:16;;;;;;;;;;;;;;;9.47;100.00;99677.86;10675736;82;21524;-80
2020/12/05 10:36:21;;;;;;;64.70;28.27;;;;;;;9.69;100.00;99690.28;10705483;81;20543;-81
2020/12/05 10:51:27;;;;;;;63.95;31.60;;;;;;;10.06;100.00;99676.31;10709473;81;21103;-80
2020/12/05 11:06:38;;;;;;;175.72;67.25;;;;;;;10.34;100.00;99668.41;10730436;81;21106;-82
2020/12/05 11:21:45;;;;;;;77.67;32.80;;;;;;;10.94;98.02;99682.25;10705542;81;21528;-81
2020/12/05 11:36:51;;;;;;;42.77;22.07;;;;;;;10.83;98.71;99664.11;10708529;81;21500;-79
2020/12/05 11:51:58;;;;;;;50.55;24.98;;;;;;;11.14;96.05;99672.88;10730897;82;21155;-80
2020/12/05 12:07:02;;;;;;;57.62;26.90;;;;;;;10.98;99.22;99693.28;10756648;82;21155;-80
2020/12/05 12:22:06;;;;;;;39.53;23.00;;;;;;;11.10;98.22;99699.92;10692538;82;21108;-80
2020/12/05 12:37:10;;;;;;;146.40;51.28;;;;;;;10.42;100.00;99718.83;10743385;82;21067;-78
2020/12/05 12:52:15;;;;;;;83.92;32.78;;;;;;;10.07;100.00;99715.97;10744997;82;21049;-82
2020/12/05 13:07:21;;;;;;;96.92;36.88;;;;;;;10.43;100.00;99703.44;10605283;82;21119;-81
2020/12/05 13:22:26;;;;;;;57.73;27.60;;;;;;;10.61;100.00;99744.93;10520157;84;21037;-82
2020/12/05 13:37:31;;;;;;;207.98;90.87;;;;;;;9.83;100.00;99740.05;10643391;83;21084;-81
2020/12/05 13:52:35;;;;;;;119.80;56.68;;;;;;;9.33;100.00;99771.27;10601457;83;21111;-81
2020/12/05 14:07:39;;;;;;;197.50;78.78;;;;;;;9.04;100.00;99773.42;10374870;85;21488;-81
2020/12/05 14:22:44;;;;;;;99.50;43.90;;;;;;;8.74;100.00;99783.03;10350094;85;21092;-81
2020/12/05 14:37:48;;;;;;;85.07;37.45;;;;;;;8.53;100.00;99817.61;10436857;83;21032;-81
2020/12/05 14:52:52;;;;;;;271.00;118.53;;;;;;;8.36;100.00;99827.69;10480295;83;21028;-81
2020/12/05 15:07:57;;;;;;;79.77;32.58;;;;;;;8.32;100.00;99835.45;10571427;83;21041;-81
2020/12/05 15:23:02;;;;;;;109.20;42.55;;;;;;;8.31;100.00;99833.78;10520328;83;21021;-82
2020/12/05 15:38:06;;;;;;;69.87;29.48;;;;;;;8.44;100.00;99832.26;10495557;83;21060;-81
2020/12/05 15:53:10;;;;;;;59.53;26.37;;;;;;;8.60;100.00;99832.60;10555821;83;21117;-81
2020/12/05 16:08:16;;;;;;;64.37;33.38;;;;;;;8.63;100.00;99838.05;10628101;82;21033;-81
2020/12/05 16:23:20;;;;;;;65.92;33.08;;;;;;;8.26;100.00;99849.03;10675100;81;21009;-81
2020/12/05 16:38:24;;;;;;;48.87;27.17;;;;;;;8.12;100.00;99859.36;10691823;81;21032;-79
2020/12/05 16:53:29;;;;;;;64.77;31.57;;;;;;;8.14;100.00;99888.33;10712709;81;21100;-81
2020/12/05 17:08:34;;;;;;;54.58;26.82;;;;;;;8.02;100.00;99900.27;10629509;82;21056;-81
2020/12/05 17:23:38;;;;;;;80.42;41.40;;;;;;;8.01;100.00;99915.13;10722826;82;21089;-82
2020/12/05 17:38:43;;;;;;;69.72;33.30;;;;;;;8.02;100.00;99925.91;10717381;82;21024;-83
2020/12/05 17:53:48;;;;;;;77.25;39.30;;;;;;;8.01;100.00;99939.95;10675896;82;21053;-79
2020/12/05 18:08:52;;;;;;;94.62;45.05;;;;;;;8.02;100.00;99946.81;10566873;83;21119;-80
2020/12/05 18:23:57;;;;;;;81.53;39.65;;;;;;;7.97;100.00;99950.27;10413825;84;21092;-79
2020/12/05 18:39:01;;;;;;;57.83;29.20;;;;;;;7.98;100.00;99955.86;10383385;85;21093;-79
2020/12/05 18:54:06;;;;;;;67.30;33.65;;;;;;;8.00;100.00;99963.10;10368569;85;21077;-79
2020/12/05 19:09:11;;;;;;;62.40;30.27;;;;;;;7.97;100.00;99977.24;10664687;82;21154;-80
2020/12/05 19:24:15;;;;;;;72.62;33.92;;;;;;;7.88;100.00;99977.15;10644217;82;21032;-80
2020/12/05 19:39:19;;;;;;;79.80;33.80;;;;;;;7.90;100.00;99988.31;10650196;82;21176;-81
2020/12/05 19:54:24;;;;;;;79.30;39.53;;;;;;;7.76;100.00;100015.08;10594226;82;21088;-81
2020/12/05 20:09:32;;;;;;;83.70;43.42;;;;;;;7.82;100.00;100013.25;10748789;81;21055;-80
2020/12/05 20:24:36;;;;;;;51.60;26.17;;;;;;;7.97;100.00;100020.34;10774219;81;21057;-81
2020/12/05 20:39:40;;;;;;;63.48;32.00;;;;;;;7.96;100.00;100027.82;10765471;81;21008;-81
2020/12/05 20:54:45;;;;;;;67.45;32.10;;;;;;;7.85;100.00;100033.56;10788332;81;21018;-82
2020/12/05 21:09:52;;;;;;;58.38;27.42;;;;;;;7.76;100.00;100027.28;10773721;81;21112;-82
2020/12/05 21:25:00;;;;;;;58.95;28.87;;;;;;;7.79;100.00;100047.46;10711940;81;21013;-82
2020/12/05 21:40:06;;;;;;;64.27;31.17;;;;;;;7.87;100.00;100057.78;10711256;82;21028;-78
2020/12/05 21:55:10;;;;;;;105.67;38.00;;;;;;;7.89;100.00;100068.92;10716449;82;21079;-80
2020/12/05 22:10:17;;;;;;;55.67;27.48;;;;;;;7.78;100.00;100067.17;10805243;80;21449;-80
2020/12/05 22:25:23;;;;;;;58.83;28.17;;;;;;;7.63;100.00;100085.72;10794972;80;21064;-82
2020/12/05 22:40:30;;;;;;;58.38;27.42;;;;;;;7.54;100.00;100107.81;10760771;81;21099;-80
2020/12/05 22:55:35;;;;;;;60.70;29.65;;;;;;;7.34;100.00;100104.97;10813275;81;21445;-81
2020/12/05 23:10:42;;;;;;;76.33;30.23;;;;;;;7.31;100.00;100103.88;10800272;81;21064;-82
2020/12/05 23:25:50;;;;;;;82.37;34.17;;;;;;;7.39;100.00;100118.50;10806223;81;21028;-82
2020/12/05 23:40:58;;;;;;;80.97;33.07;;;;;;;7.24;100.00;100131.41;10813381;81;21472;-81
2020/12/05 23:56:02;;;;;;;;;;;;;;;7.18;100.00;100131.41;10307823;85;21298;-82
